Date,TemperatureHighF,TemperatureAvgF,TemperatureLowF,DewpointHighF,DewpointAvgF,DewpointLowF,HumidityHigh,HumidityAvg,HumidityLow,PressureMaxIn,PressureMinIn,WindSpeedMaxMPH,WindSpeedAvgMPH,GustSpeedMaxMPH,PrecipitationSumIn
2013-2-1,32,28,22,31,14,7,94,58,46,30.35,29.82,31,12,31,0.00
2013-2-2,32,27,20,29,16,8,91,64,47,30.36,29.99,18,6,18,0.00
2013-2-3,34,32,29,31,27,23,93,85,66,29.99,29.81,26,3,26,0.00
2013-2-4,38,32,26,33,21,14,85,65,56,30.09,29.88,26,7,26,0.00
2013-2-5,39,37,33,36,33,30,94,86,75,29.92,29.83,12,2,12,0.00
2013-2-6,43,38,31,36,32,28,96,82,64,30.34,29.90,20,5,20,0.00
2013-2-7,40,36,30,34,30,25,90,81,73,30.44,30.17,16,6,16,0.00
2013-2-8,41,38,36,40,36,28,98,92,69,30.17,29.65,32,12,32,0.30
2013-2-9,39,35,31,28,24,21,74,64,54,30.36,29.84,39,13,39,0.00
2013-2-10,40,34,29,35,24,16,90,66,46,30.48,30.26,21,7,21,0.00
2013-2-11,54,46,37,51,44,35,99,95,82,30.26,29.69,19,6,19,0.18
2013-2-12,51,46,40,47,36,32,87,67,48,29.98,29.76,18,4,18,0.00
2013-2-13,44,40,35,39,35,31,97,85,75,29.94,29.62,21,8,22,0.11
2013-2-14,44,39,36,37,35,33,97,85,70,30.01,29.72,16,5,16,0.01
2013-2-15,52,43,38,44,39,35,93,85,72,30.02,29.86,18,5,18,0.00
2013-2-16,38,36,35,36,33,26,96,88,69,29.93,29.76,28,13,28,0.04
2013-2-17,35,30,26,27,17,11,73,58,44,30.16,29.76,31,13,31,0.00
2013-2-18,38,31,24,33,18,9,86,59,43,30.36,30.16,28,8,28,0.00
2013-2-19,45,41,38,44,36,30,98,84,72,30.17,29.71,20,8,20,0.08
2013-2-20,40,35,27,32,21,13,72,58,50,30.12,29.81,29,10,29,0.00
2013-2-21,39,32,26,24,19,14,70,59,49,30.28,30.09,25,10,25,0.00
2013-2-22,35,33,30,34,27,22,95,78,68,30.37,30.19,20,5,20,0.01
2013-2-23,42,38,35,42,38,33,99,98,95,30.19,29.77,18,6,18,0.08
2013-2-24,50,42,35,45,36,25,100,81,53,30.06,29.76,30,9,30,0.01
2013-2-25,43,37,32,34,29,24,93,74,58,30.20,30.06,20,5,22,0.00
2013-2-26,49,40,34,49,38,32,99,91,82,30.21,29.55,33,12,33,0.34
2013-2-27,54,46,42,48,43,38,99,88,67,29.67,29.45,18,3,18,0.02
2013-2-28,46,43,39,40,36,32,91,77,63,29.70,29.59,17,4,17,0.10